sensor_id;sensor_type;location;lat;lon;timestamp;P1;durP1;ratioP1;P2;durP2;ratioP2
55218;SDS011;65463;43.864;20.136;2023-05-19T00:00:54;12.98;;;7.60;;
55218;SDS011;65463;43.864;20.136;2023-05-19T00:03:21;11.50;;;7.30;;
55218;SDS011;65463;43.864;20.136;2023-05-19T00:05:55;16.23;;;7.30;;
55218;SDS011;65463;43.864;20.136;2023-05-19T00:08:22;11.60;;;6.97;;
55218;SDS011;65463;43.864;20.136;2023-05-19T00:10:49;13.52;;;7.07;;
55218;SDS011;65463;43.864;20.136;2023-05-19T00:13:18;13.80;;;7.30;;
55218;SDS011;65463;43.864;20.136;2023-05-19T00:15:44;16.27;;;7.50;;
55218;SDS011;65463;43.864;20.136;2023-05-19T00:18:10;14.07;;;7.32;;
55218;SDS011;65463;43.864;20.136;2023-05-19T00:20:38;11.73;;;6.88;;
55218;SDS011;65463;43.864;20.136;2023-05-19T00:23:04;13.73;;;7.10;;
55218;SDS011;65463;43.864;20.136;2023-05-19T00:25:30;13.98;;;7.25;;
55218;SDS011;65463;43.864;20.136;2023-05-19T00:27:56;15.63;;;7.38;;
55218;SDS011;65463;43.864;20.136;2023-05-19T00:30:23;14.60;;;7.47;;
55218;SDS011;65463;43.864;20.136;2023-05-19T00:32:50;12.70;;;7.80;;
55218;SDS011;65463;43.864;20.136;2023-05-19T00:35:16;13.30;;;7.22;;
55218;SDS011;65463;43.864;20.136;2023-05-19T00:37:44;12.98;;;7.20;;
55218;SDS011;65463;43.864;20.136;2023-05-19T00:40:11;13.73;;;7.40;;
55218;SDS011;65463;43.864;20.136;2023-05-19T00:42:37;13.90;;;7.20;;
55218;SDS011;65463;43.864;20.136;2023-05-19T00:45:03;15.13;;;7.70;;
55218;SDS011;65463;43.864;20.136;2023-05-19T00:47:35;18.48;;;8.48;;
55218;SDS011;65463;43.864;20.136;2023-05-19T00:50:06;15.98;;;7.95;;
55218;SDS011;65463;43.864;20.136;2023-05-19T00:52:35;16.67;;;7.70;;
55218;SDS011;65463;43.864;20.136;2023-05-19T00:55:01;20.42;;;8.23;;
55218;SDS011;65463;43.864;20.136;2023-05-19T00:57:27;19.60;;;8.70;;
55218;SDS011;65463;43.864;20.136;2023-05-19T00:59:53;21.40;;;8.30;;
55218;SDS011;65463;43.864;20.136;2023-05-19T01:02:20;31.85;;;9.10;;
55218;SDS011;65463;43.864;20.136;2023-05-19T01:04:46;18.23;;;9.07;;
55218;SDS011;65463;43.864;20.136;2023-05-19T01:07:12;21.48;;;8.63;;
55218;SDS011;65463;43.864;20.136;2023-05-19T01:09:39;16.35;;;8.23;;
55218;SDS011;65463;43.864;20.136;2023-05-19T01:12:05;17.77;;;9.35;;
55218;SDS011;65463;43.864;20.136;2023-05-19T01:14:31;13.45;;;7.35;;
55218;SDS011;65463;43.864;20.136;2023-05-19T01:17:03;17.80;;;7.93;;
55218;SDS011;65463;43.864;20.136;2023-05-19T01:27:46;17.88;;;9.07;;
55218;SDS011;65463;43.864;20.136;2023-05-19T01:32:50;16.50;;;8.73;;
55218;SDS011;65463;43.864;20.136;2023-05-19T01:35:21;17.35;;;9.23;;
55218;SDS011;65463;43.864;20.136;2023-05-19T01:37:48;14.00;;;8.48;;
55218;SDS011;65463;43.864;20.136;2023-05-19T01:40:16;20.08;;;9.98;;
55218;SDS011;65463;43.864;20.136;2023-05-19T01:42:45;15.27;;;8.27;;
55218;SDS011;65463;43.864;20.136;2023-05-19T01:45:12;13.93;;;8.00;;
55218;SDS011;65463;43.864;20.136;2023-05-19T01:47:40;14.68;;;7.78;;
55218;SDS011;65463;43.864;20.136;2023-05-19T01:50:07;11.65;;;7.40;;
55218;SDS011;65463;43.864;20.136;2023-05-19T01:52:33;14.23;;;7.55;;
55218;SDS011;65463;43.864;20.136;2023-05-19T01:54:59;12.38;;;7.38;;
55218;SDS011;65463;43.864;20.136;2023-05-19T02:05:17;16.40;;;7.35;;
55218;SDS011;65463;43.864;20.136;2023-05-19T02:07:58;14.27;;;7.78;;
55218;SDS011;65463;43.864;20.136;2023-05-19T02:10:28;13.85;;;7.53;;
55218;SDS011;65463;43.864;20.136;2023-05-19T02:12:55;16.58;;;8.25;;
55218;SDS011;65463;43.864;20.136;2023-05-19T02:15:24;16.23;;;8.70;;
55218;SDS011;65463;43.864;20.136;2023-05-19T02:17:51;14.63;;;7.82;;
55218;SDS011;65463;43.864;20.136;2023-05-19T02:20:18;13.85;;;8.15;;
55218;SDS011;65463;43.864;20.136;2023-05-19T02:22:46;14.73;;;7.90;;
55218;SDS011;65463;43.864;20.136;2023-05-19T02:25:20;15.63;;;8.57;;
55218;SDS011;65463;43.864;20.136;2023-05-19T02:27:47;15.35;;;9.27;;
55218;SDS011;65463;43.864;20.136;2023-05-19T02:30:16;16.10;;;9.07;;
55218;SDS011;65463;43.864;20.136;2023-05-19T02:32:44;13.50;;;9.02;;
55218;SDS011;65463;43.864;20.136;2023-05-19T02:35:11;15.30;;;9.77;;
55218;SDS011;65463;43.864;20.136;2023-05-19T02:37:37;14.75;;;8.75;;
55218;SDS011;65463;43.864;20.136;2023-05-19T02:40:04;16.02;;;9.07;;
55218;SDS011;65463;43.864;20.136;2023-05-19T02:42:30;13.70;;;8.07;;
55218;SDS011;65463;43.864;20.136;2023-05-19T02:44:56;14.13;;;8.93;;
55218;SDS011;65463;43.864;20.136;2023-05-19T02:47:22;18.13;;;9.60;;
55218;SDS011;65463;43.864;20.136;2023-05-19T02:49:48;15.80;;;9.18;;
55218;SDS011;65463;43.864;20.136;2023-05-19T02:52:15;17.00;;;10.30;;
55218;SDS011;65463;43.864;20.136;2023-05-19T02:54:41;16.38;;;9.00;;
55218;SDS011;65463;43.864;20.136;2023-05-19T02:57:07;15.98;;;9.63;;
55218;SDS011;65463;43.864;20.136;2023-05-19T02:59:35;17.42;;;9.27;;
55218;SDS011;65463;43.864;20.136;2023-05-19T03:02:02;20.00;;;9.02;;
55218;SDS011;65463;43.864;20.136;2023-05-19T03:04:28;16.65;;;9.60;;
55218;SDS011;65463;43.864;20.136;2023-05-19T03:06:55;14.80;;;8.60;;
55218;SDS011;65463;43.864;20.136;2023-05-19T03:09:24;16.77;;;9.20;;
55218;SDS011;65463;43.864;20.136;2023-05-19T03:11:50;17.20;;;8.35;;
55218;SDS011;65463;43.864;20.136;2023-05-19T03:14:16;14.85;;;8.50;;
55218;SDS011;65463;43.864;20.136;2023-05-19T03:16:48;14.40;;;8.27;;
55218;SDS011;65463;43.864;20.136;2023-05-19T03:19:14;16.27;;;9.15;;
55218;SDS011;65463;43.864;20.136;2023-05-19T03:21:42;16.17;;;8.68;;
55218;SDS011;65463;43.864;20.136;2023-05-19T03:24:11;18.70;;;8.77;;
55218;SDS011;65463;43.864;20.136;2023-05-19T03:26:37;13.05;;;8.40;;
55218;SDS011;65463;43.864;20.136;2023-05-19T03:29:03;14.57;;;8.98;;
55218;SDS011;65463;43.864;20.136;2023-05-19T03:31:30;19.20;;;9.20;;
55218;SDS011;65463;43.864;20.136;2023-05-19T03:33:56;16.85;;;9.38;;
55218;SDS011;65463;43.864;20.136;2023-05-19T03:36:22;16.88;;;9.18;;
55218;SDS011;65463;43.864;20.136;2023-05-19T03:38:49;14.15;;;8.93;;
55218;SDS011;65463;43.864;20.136;2023-05-19T03:41:15;14.82;;;9.05;;
55218;SDS011;65463;43.864;20.136;2023-05-19T03:43:48;15.43;;;9.05;;
55218;SDS011;65463;43.864;20.136;2023-05-19T03:46:15;14.93;;;9.05;;
55218;SDS011;65463;43.864;20.136;2023-05-19T03:48:43;13.50;;;9.20;;
55218;SDS011;65463;43.864;20.136;2023-05-19T03:51:10;16.75;;;9.60;;
55218;SDS011;65463;43.864;20.136;2023-05-19T03:53:36;18.67;;;9.75;;
55218;SDS011;65463;43.864;20.136;2023-05-19T03:56:02;15.95;;;9.88;;
55218;SDS011;65463;43.864;20.136;2023-05-19T03:58:28;13.48;;;8.85;;
55218;SDS011;65463;43.864;20.136;2023-05-19T04:00:55;14.85;;;9.60;;
55218;SDS011;65463;43.864;20.136;2023-05-19T04:03:21;15.00;;;9.10;;
55218;SDS011;65463;43.864;20.136;2023-05-19T04:05:47;15.57;;;9.48;;
55218;SDS011;65463;43.864;20.136;2023-05-19T04:08:16;18.02;;;9.85;;
55218;SDS011;65463;43.864;20.136;2023-05-19T04:10:42;15.27;;;9.50;;
55218;SDS011;65463;43.864;20.136;2023-05-19T04:13:08;23.77;;;9.80;;
55218;SDS011;65463;43.864;20.136;2023-05-19T04:15:35;15.93;;;9.68;;
55218;SDS011;65463;43.864;20.136;2023-05-19T04:18:01;18.08;;;10.02;;
55218;SDS011;65463;43.864;20.136;2023-05-19T04:20:30;35.10;;;8.82;;
55218;SDS011;65463;43.864;20.136;2023-05-19T04:22:56;25.60;;;8.50;;
55218;SDS011;65463;43.864;20.136;2023-05-19T04:25:25;17.15;;;9.43;;
55218;SDS011;65463;43.864;20.136;2023-05-19T04:27:52;16.10;;;8.80;;
55218;SDS011;65463;43.864;20.136;2023-05-19T04:30:22;19.03;;;9.00;;
55218;SDS011;65463;43.864;20.136;2023-05-19T04:32:50;20.17;;;9.35;;
55218;SDS011;65463;43.864;20.136;2023-05-19T04:35:16;20.50;;;9.60;;
55218;SDS011;65463;43.864;20.136;2023-05-19T04:37:43;19.63;;;9.57;;
55218;SDS011;65463;43.864;20.136;2023-05-19T04:40:10;22.25;;;10.05;;
55218;SDS011;65463;43.864;20.136;2023-05-19T04:42:37;22.30;;;10.38;;
55218;SDS011;65463;43.864;20.136;2023-05-19T04:45:07;18.00;;;9.77;;
55218;SDS011;65463;43.864;20.136;2023-05-19T04:47:34;17.20;;;9.20;;
55218;SDS011;65463;43.864;20.136;2023-05-19T04:50:02;16.05;;;8.77;;
55218;SDS011;65463;43.864;20.136;2023-05-19T04:52:28;17.73;;;9.15;;
55218;SDS011;65463;43.864;20.136;2023-05-19T04:54:55;18.25;;;9.07;;
55218;SDS011;65463;43.864;20.136;2023-05-19T04:57:24;15.15;;;8.68;;
55218;SDS011;65463;43.864;20.136;2023-05-19T04:59:50;23.83;;;9.70;;
55218;SDS011;65463;43.864;20.136;2023-05-19T05:02:16;21.25;;;10.25;;
55218;SDS011;65463;43.864;20.136;2023-05-19T05:04:42;15.52;;;9.27;;
55218;SDS011;65463;43.864;20.136;2023-05-19T05:07:10;14.55;;;9.18;;
55218;SDS011;65463;43.864;20.136;2023-05-19T05:09:41;14.73;;;8.88;;
55218;SDS011;65463;43.864;20.136;2023-05-19T05:12:08;16.08;;;8.82;;
55218;SDS011;65463;43.864;20.136;2023-05-19T05:14:34;17.40;;;9.50;;
55218;SDS011;65463;43.864;20.136;2023-05-19T05:17:01;21.27;;;9.38;;
55218;SDS011;65463;43.864;20.136;2023-05-19T05:19:27;18.30;;;8.45;;
55218;SDS011;65463;43.864;20.136;2023-05-19T05:21:53;28.83;;;9.70;;
55218;SDS011;65463;43.864;20.136;2023-05-19T05:24:20;27.17;;;9.27;;
55218;SDS011;65463;43.864;20.136;2023-05-19T05:26:48;27.40;;;9.80;;
55218;SDS011;65463;43.864;20.136;2023-05-19T05:29:15;24.85;;;9.50;;
55218;SDS011;65463;43.864;20.136;2023-05-19T05:31:41;21.55;;;10.38;;
55218;SDS011;65463;43.864;20.136;2023-05-19T05:34:07;39.70;;;19.00;;
55218;SDS011;65463;43.864;20.136;2023-05-19T05:36:33;22.02;;;12.10;;
55218;SDS011;65463;43.864;20.136;2023-05-19T05:38:59;42.15;;;21.35;;
55218;SDS011;65463;43.864;20.136;2023-05-19T05:41:27;38.67;;;19.75;;
55218;SDS011;65463;43.864;20.136;2023-05-19T05:44:02;42.13;;;22.67;;
55218;SDS011;65463;43.864;20.136;2023-05-19T05:46:28;16.95;;;10.55;;
55218;SDS011;65463;43.864;20.136;2023-05-19T05:48:55;23.80;;;12.13;;
55218;SDS011;65463;43.864;20.136;2023-05-19T05:51:21;123.05;;;68.65;;
55218;SDS011;65463;43.864;20.136;2023-05-19T05:53:50;25.33;;;11.63;;
55218;SDS011;65463;43.864;20.136;2023-05-19T05:56:16;37.38;;;19.27;;
55218;SDS011;65463;43.864;20.136;2023-05-19T05:58:43;31.88;;;16.15;;
55218;SDS011;65463;43.864;20.136;2023-05-19T06:01:09;26.55;;;12.02;;
55218;SDS011;65463;43.864;20.136;2023-05-19T06:03:36;23.20;;;11.73;;
55218;SDS011;65463;43.864;20.136;2023-05-19T06:06:02;18.20;;;10.07;;
55218;SDS011;65463;43.864;20.136;2023-05-19T06:08:29;23.05;;;11.15;;
55218;SDS011;65463;43.864;20.136;2023-05-19T06:10:55;20.45;;;11.40;;
55218;SDS011;65463;43.864;20.136;2023-05-19T06:13:22;21.80;;;12.18;;
55218;SDS011;65463;43.864;20.136;2023-05-19T06:15:50;34.05;;;19.00;;
55218;SDS011;65463;43.864;20.136;2023-05-19T06:18:16;54.33;;;27.52;;
55218;SDS011;65463;43.864;20.136;2023-05-19T06:20:43;42.33;;;23.38;;
55218;SDS011;65463;43.864;20.136;2023-05-19T06:23:09;31.98;;;17.60;;
55218;SDS011;65463;43.864;20.136;2023-05-19T06:25:35;35.42;;;20.23;;
55218;SDS011;65463;43.864;20.136;2023-05-19T06:28:01;25.25;;;14.27;;
55218;SDS011;65463;43.864;20.136;2023-05-19T06:30:27;22.42;;;12.35;;
55218;SDS011;65463;43.864;20.136;2023-05-19T06:32:55;24.95;;;13.07;;
55218;SDS011;65463;43.864;20.136;2023-05-19T06:35:21;30.08;;;16.35;;
55218;SDS011;65463;43.864;20.136;2023-05-19T06:37:47;34.97;;;15.88;;
55218;SDS011;65463;43.864;20.136;2023-05-19T06:40:13;31.27;;;15.13;;
55218;SDS011;65463;43.864;20.136;2023-05-19T06:42:42;24.65;;;12.18;;
55218;SDS011;65463;43.864;20.136;2023-05-19T06:45:09;29.03;;;12.87;;
55218;SDS011;65463;43.864;20.136;2023-05-19T06:47:35;28.15;;;12.95;;
55218;SDS011;65463;43.864;20.136;2023-05-19T06:50:01;27.75;;;13.68;;
55218;SDS011;65463;43.864;20.136;2023-05-19T06:52:27;25.65;;;11.93;;
55218;SDS011;65463;43.864;20.136;2023-05-19T06:54:53;32.85;;;13.52;;
55218;SDS011;65463;43.864;20.136;2023-05-19T06:57:20;28.27;;;15.40;;
55218;SDS011;65463;43.864;20.136;2023-05-19T06:59:46;29.17;;;12.88;;
55218;SDS011;65463;43.864;20.136;2023-05-19T07:02:12;26.02;;;13.00;;
55218;SDS011;65463;43.864;20.136;2023-05-19T07:04:38;27.77;;;12.63;;
55218;SDS011;65463;43.864;20.136;2023-05-19T07:07:05;30.42;;;14.38;;
55218;SDS011;65463;43.864;20.136;2023-05-19T07:09:31;25.85;;;13.07;;
55218;SDS011;65463;43.864;20.136;2023-05-19T07:11:58;21.55;;;11.93;;
55218;SDS011;65463;43.864;20.136;2023-05-19T07:14:24;26.65;;;12.45;;
55218;SDS011;65463;43.864;20.136;2023-05-19T07:16:50;25.27;;;12.38;;
55218;SDS011;65463;43.864;20.136;2023-05-19T07:19:16;41.95;;;15.55;;
55218;SDS011;65463;43.864;20.136;2023-05-19T07:21:45;27.38;;;13.40;;
55218;SDS011;65463;43.864;20.136;2023-05-19T07:24:14;26.15;;;13.60;;
55218;SDS011;65463;43.864;20.136;2023-05-19T07:26:45;29.42;;;14.70;;
55218;SDS011;65463;43.864;20.136;2023-05-19T07:29:11;36.78;;;17.85;;
55218;SDS011;65463;43.864;20.136;2023-05-19T07:31:37;31.63;;;15.95;;
55218;SDS011;65463;43.864;20.136;2023-05-19T07:34:04;28.73;;;14.45;;
55218;SDS011;65463;43.864;20.136;2023-05-19T07:36:32;33.10;;;15.60;;
55218;SDS011;65463;43.864;20.136;2023-05-19T07:38:59;62.92;;;30.25;;
55218;SDS011;65463;43.864;20.136;2023-05-19T07:41:25;75.70;;;35.63;;
55218;SDS011;65463;43.864;20.136;2023-05-19T07:43:56;128.43;;;63.47;;
55218;SDS011;65463;43.864;20.136;2023-05-19T07:46:22;144.52;;;77.05;;
55218;SDS011;65463;43.864;20.136;2023-05-19T07:48:48;61.33;;;30.50;;
55218;SDS011;65463;43.864;20.136;2023-05-19T07:51:14;58.97;;;30.25;;
55218;SDS011;65463;43.864;20.136;2023-05-19T07:53:41;40.03;;;17.52;;
55218;SDS011;65463;43.864;20.136;2023-05-19T07:56:07;38.90;;;17.58;;
55218;SDS011;65463;43.864;20.136;2023-05-19T07:58:33;36.70;;;17.15;;
55218;SDS011;65463;43.864;20.136;2023-05-19T08:00:59;67.55;;;34.20;;
55218;SDS011;65463;43.864;20.136;2023-05-19T08:03:25;459.08;;;297.00;;
55218;SDS011;65463;43.864;20.136;2023-05-19T08:05:52;379.17;;;232.85;;
55218;SDS011;65463;43.864;20.136;2023-05-19T08:08:18;113.22;;;59.17;;
55218;SDS011;65463;43.864;20.136;2023-05-19T08:10:44;156.70;;;84.53;;
55218;SDS011;65463;43.864;20.136;2023-05-19T08:13:11;87.07;;;45.63;;
55218;SDS011;65463;43.864;20.136;2023-05-19T08:15:39;125.65;;;68.55;;
55218;SDS011;65463;43.864;20.136;2023-05-19T08:18:06;164.93;;;78.20;;
55218;SDS011;65463;43.864;20.136;2023-05-19T08:20:32;77.35;;;35.70;;
55218;SDS011;65463;43.864;20.136;2023-05-19T08:22:59;50.42;;;22.17;;
55218;SDS011;65463;43.864;20.136;2023-05-19T08:25:25;92.78;;;43.78;;
55218;SDS011;65463;43.864;20.136;2023-05-19T08:27:51;52.38;;;23.65;;
55218;SDS011;65463;43.864;20.136;2023-05-19T08:30:17;41.33;;;18.08;;
55218;SDS011;65463;43.864;20.136;2023-05-19T08:32:43;59.80;;;27.42;;
55218;SDS011;65463;43.864;20.136;2023-05-19T08:35:10;36.28;;;18.17;;
55218;SDS011;65463;43.864;20.136;2023-05-19T08:37:36;29.33;;;15.82;;
55218;SDS011;65463;43.864;20.136;2023-05-19T08:40:03;96.25;;;50.55;;
55218;SDS011;65463;43.864;20.136;2023-05-19T08:42:30;35.70;;;17.48;;
55218;SDS011;65463;43.864;20.136;2023-05-19T08:44:57;57.30;;;29.08;;
55218;SDS011;65463;43.864;20.136;2023-05-19T08:47:24;124.47;;;67.78;;
55218;SDS011;65463;43.864;20.136;2023-05-19T08:49:52;103.60;;;56.40;;
55218;SDS011;65463;43.864;20.136;2023-05-19T08:54:57;51.03;;;23.10;;
55218;SDS011;65463;43.864;20.136;2023-05-19T08:57:26;40.35;;;20.83;;
55218;SDS011;65463;43.864;20.136;2023-05-19T08:59:53;72.30;;;39.22;;
55218;SDS011;65463;43.864;20.136;2023-05-19T09:02:20;73.32;;;37.50;;
55218;SDS011;65463;43.864;20.136;2023-05-19T09:04:47;39.90;;;20.02;;
55218;SDS011;65463;43.864;20.136;2023-05-19T09:07:14;38.58;;;20.60;;
55218;SDS011;65463;43.864;20.136;2023-05-19T09:09:40;62.00;;;32.95;;
55218;SDS011;65463;43.864;20.136;2023-05-19T09:12:11;82.65;;;45.33;;
55218;SDS011;65463;43.864;20.136;2023-05-19T09:17:04;28.20;;;15.70;;
55218;SDS011;65463;43.864;20.136;2023-05-19T09:19:30;101.93;;;59.83;;
55218;SDS011;65463;43.864;20.136;2023-05-19T09:21:57;49.17;;;26.20;;
55218;SDS011;65463;43.864;20.136;2023-05-19T09:24:25;41.35;;;22.70;;
55218;SDS011;65463;43.864;20.136;2023-05-19T09:26:52;62.08;;;34.47;;
55218;SDS011;65463;43.864;20.136;2023-05-19T09:29:19;65.95;;;31.15;;
55218;SDS011;65463;43.864;20.136;2023-05-19T09:31:48;42.85;;;23.33;;
55218;SDS011;65463;43.864;20.136;2023-05-19T09:34:18;33.00;;;18.88;;
55218;SDS011;65463;43.864;20.136;2023-05-19T09:36:46;31.65;;;18.25;;
55218;SDS011;65463;43.864;20.136;2023-05-19T09:39:20;35.75;;;17.73;;
55218;SDS011;65463;43.864;20.136;2023-05-19T09:41:50;29.83;;;16.73;;
55218;SDS011;65463;43.864;20.136;2023-05-19T09:46:53;27.58;;;15.65;;
55218;SDS011;65463;43.864;20.136;2023-05-19T09:49:20;82.18;;;26.67;;
55218;SDS011;65463;43.864;20.136;2023-05-19T09:51:54;167.25;;;43.65;;
55218;SDS011;65463;43.864;20.136;2023-05-19T09:54:23;504.33;;;110.07;;
55218;SDS011;65463;43.864;20.136;2023-05-19T09:56:58;171.48;;;42.85;;
55218;SDS011;65463;43.864;20.136;2023-05-19T09:59:27;42.58;;;17.52;;
55218;SDS011;65463;43.864;20.136;2023-05-19T10:01:57;46.92;;;19.73;;
55218;SDS011;65463;43.864;20.136;2023-05-19T10:04:27;27.08;;;16.40;;
55218;SDS011;65463;43.864;20.136;2023-05-19T10:06:54;30.50;;;16.20;;
55218;SDS011;65463;43.864;20.136;2023-05-19T10:09:23;30.55;;;15.90;;
55218;SDS011;65463;43.864;20.136;2023-05-19T10:11:51;29.30;;;14.50;;
55218;SDS011;65463;43.864;20.136;2023-05-19T10:14:21;33.25;;;17.38;;
55218;SDS011;65463;43.864;20.136;2023-05-19T10:16:51;27.77;;;15.98;;
55218;SDS011;65463;43.864;20.136;2023-05-19T10:19:22;34.72;;;17.15;;
55218;SDS011;65463;43.864;20.136;2023-05-19T10:21:48;33.05;;;16.70;;
55218;SDS011;65463;43.864;20.136;2023-05-19T10:24:15;27.60;;;16.20;;
55218;SDS011;65463;43.864;20.136;2023-05-19T10:27:01;28.55;;;15.20;;
55218;SDS011;65463;43.864;20.136;2023-05-19T10:29:30;28.00;;;15.45;;
55218;SDS011;65463;43.864;20.136;2023-05-19T10:32:00;26.85;;;15.82;;
55218;SDS011;65463;43.864;20.136;2023-05-19T10:37:16;34.60;;;16.95;;
55218;SDS011;65463;43.864;20.136;2023-05-19T10:39:55;23.98;;;14.43;;
55218;SDS011;65463;43.864;20.136;2023-05-19T10:45:26;29.50;;;16.45;;
55218;SDS011;65463;43.864;20.136;2023-05-19T10:47:55;44.05;;;24.77;;
55218;SDS011;65463;43.864;20.136;2023-05-19T10:50:21;74.57;;;44.40;;
55218;SDS011;65463;43.864;20.136;2023-05-19T10:52:56;47.38;;;28.48;;
55218;SDS011;65463;43.864;20.136;2023-05-19T10:58:09;26.25;;;15.18;;
55218;SDS011;65463;43.864;20.136;2023-05-19T11:00:36;47.70;;;25.67;;
55218;SDS011;65463;43.864;20.136;2023-05-19T11:03:17;27.23;;;15.43;;
55218;SDS011;65463;43.864;20.136;2023-05-19T11:05:47;33.33;;;18.40;;
55218;SDS011;65463;43.864;20.136;2023-05-19T11:08:17;31.65;;;17.67;;
55218;SDS011;65463;43.864;20.136;2023-05-19T11:10:56;32.35;;;17.38;;
55218;SDS011;65463;43.864;20.136;2023-05-19T11:16:08;24.55;;;14.25;;
55218;SDS011;65463;43.864;20.136;2023-05-19T11:18:34;19.92;;;13.65;;
55218;SDS011;65463;43.864;20.136;2023-05-19T11:21:02;37.08;;;23.27;;
55218;SDS011;65463;43.864;20.136;2023-05-19T11:23:29;25.08;;;13.88;;
55218;SDS011;65463;43.864;20.136;2023-05-19T11:25:59;22.92;;;14.57;;
55218;SDS011;65463;43.864;20.136;2023-05-19T11:28:26;29.45;;;17.58;;
55218;SDS011;65463;43.864;20.136;2023-05-19T11:30:56;24.95;;;15.32;;
55218;SDS011;65463;43.864;20.136;2023-05-19T11:33:24;33.63;;;21.33;;
55218;SDS011;65463;43.864;20.136;2023-05-19T11:35:54;27.67;;;16.77;;
55218;SDS011;65463;43.864;20.136;2023-05-19T11:38:23;24.10;;;14.68;;
55218;SDS011;65463;43.864;20.136;2023-05-19T11:40:53;24.92;;;14.75;;
55218;SDS011;65463;43.864;20.136;2023-05-19T11:43:23;22.42;;;13.15;;
55218;SDS011;65463;43.864;20.136;2023-05-19T11:45:50;22.65;;;13.95;;
55218;SDS011;65463;43.864;20.136;2023-05-19T11:48:19;30.42;;;18.05;;
55218;SDS011;65463;43.864;20.136;2023-05-19T11:50:45;29.33;;;16.83;;
55218;SDS011;65463;43.864;20.136;2023-05-19T11:53:11;23.60;;;16.08;;
55218;SDS011;65463;43.864;20.136;2023-05-19T11:55:42;22.20;;;14.40;;
55218;SDS011;65463;43.864;20.136;2023-05-19T11:58:10;22.70;;;14.75;;
55218;SDS011;65463;43.864;20.136;2023-05-19T12:00:37;28.08;;;17.42;;
55218;SDS011;65463;43.864;20.136;2023-05-19T12:03:04;23.50;;;14.00;;
55218;SDS011;65463;43.864;20.136;2023-05-19T12:05:30;26.27;;;16.77;;
55218;SDS011;65463;43.864;20.136;2023-05-19T12:07:57;20.73;;;13.77;;
55218;SDS011;65463;43.864;20.136;2023-05-19T12:10:25;23.65;;;13.00;;
55218;SDS011;65463;43.864;20.136;2023-05-19T12:12:53;30.67;;;18.42;;
55218;SDS011;65463;43.864;20.136;2023-05-19T12:15:20;20.52;;;13.57;;
55218;SDS011;65463;43.864;20.136;2023-05-19T12:18:04;21.50;;;14.25;;
55218;SDS011;65463;43.864;20.136;2023-05-19T12:20:30;28.88;;;17.73;;
55218;SDS011;65463;43.864;20.136;2023-05-19T12:22:59;20.60;;;13.20;;
55218;SDS011;65463;43.864;20.136;2023-05-19T12:25:27;19.58;;;14.27;;
55218;SDS011;65463;43.864;20.136;2023-05-19T12:27:57;24.05;;;14.90;;
55218;SDS011;65463;43.864;20.136;2023-05-19T12:30:28;26.73;;;15.70;;
55218;SDS011;65463;43.864;20.136;2023-05-19T12:32:55;26.10;;;17.13;;
55218;SDS011;65463;43.864;20.136;2023-05-19T12:35:28;21.50;;;15.17;;
55218;SDS011;65463;43.864;20.136;2023-05-19T12:37:56;24.58;;;15.10;;
55218;SDS011;65463;43.864;20.136;2023-05-19T12:40:27;20.50;;;13.63;;
55218;SDS011;65463;43.864;20.136;2023-05-19T12:42:55;22.73;;;12.73;;
55218;SDS011;65463;43.864;20.136;2023-05-19T12:45:23;19.65;;;12.85;;
55218;SDS011;65463;43.864;20.136;2023-05-19T12:47:51;22.33;;;14.45;;
55218;SDS011;65463;43.864;20.136;2023-05-19T12:50:17;21.60;;;13.35;;
55218;SDS011;65463;43.864;20.136;2023-05-19T12:52:47;19.55;;;13.00;;
55218;SDS011;65463;43.864;20.136;2023-05-19T12:55:17;20.73;;;12.95;;
55218;SDS011;65463;43.864;20.136;2023-05-19T12:57:48;24.55;;;13.18;;
55218;SDS011;65463;43.864;20.136;2023-05-19T13:00:21;21.52;;;14.60;;
55218;SDS011;65463;43.864;20.136;2023-05-19T13:03:02;17.95;;;12.63;;
55218;SDS011;65463;43.864;20.136;2023-05-19T13:05:39;18.27;;;13.05;;
55218;SDS011;65463;43.864;20.136;2023-05-19T13:08:11;20.42;;;14.15;;
55218;SDS011;65463;43.864;20.136;2023-05-19T13:10:39;23.50;;;13.57;;
55218;SDS011;65463;43.864;20.136;2023-05-19T13:13:06;22.40;;;13.40;;
55218;SDS011;65463;43.864;20.136;2023-05-19T13:15:33;19.48;;;12.88;;
55218;SDS011;65463;43.864;20.136;2023-05-19T13:18:02;18.80;;;13.33;;
55218;SDS011;65463;43.864;20.136;2023-05-19T13:20:32;20.83;;;12.57;;
55218;SDS011;65463;43.864;20.136;2023-05-19T13:22:59;18.77;;;12.43;;
55218;SDS011;65463;43.864;20.136;2023-05-19T13:25:25;19.75;;;13.52;;
55218;SDS011;65463;43.864;20.136;2023-05-19T13:27:52;19.05;;;12.65;;
55218;SDS011;65463;43.864;20.136;2023-05-19T13:30:19;23.40;;;14.10;;
55218;SDS011;65463;43.864;20.136;2023-05-19T13:32:46;18.08;;;12.23;;
55218;SDS011;65463;43.864;20.136;2023-05-19T13:35:12;16.95;;;12.23;;
55218;SDS011;65463;43.864;20.136;2023-05-19T13:37:42;17.88;;;12.07;;
55218;SDS011;65463;43.864;20.136;2023-05-19T13:40:08;18.48;;;12.60;;
55218;SDS011;65463;43.864;20.136;2023-05-19T13:42:35;19.75;;;13.75;;
55218;SDS011;65463;43.864;20.136;2023-05-19T13:45:01;18.38;;;12.35;;
55218;SDS011;65463;43.864;20.136;2023-05-19T13:47:28;16.40;;;12.07;;
55218;SDS011;65463;43.864;20.136;2023-05-19T13:49:54;18.20;;;13.43;;
55218;SDS011;65463;43.864;20.136;2023-05-19T13:52:20;22.40;;;13.40;;
55218;SDS011;65463;43.864;20.136;2023-05-19T13:54:47;18.67;;;13.30;;
55218;SDS011;65463;43.864;20.136;2023-05-19T13:57:16;19.38;;;12.65;;
55218;SDS011;65463;43.864;20.136;2023-05-19T13:59:42;23.73;;;13.67;;
55218;SDS011;65463;43.864;20.136;2023-05-19T14:02:09;19.10;;;12.73;;
55218;SDS011;65463;43.864;20.136;2023-05-19T14:04:35;18.88;;;13.52;;
55218;SDS011;65463;43.864;20.136;2023-05-19T14:07:05;19.80;;;12.65;;
55218;SDS011;65463;43.864;20.136;2023-05-19T14:09:31;19.48;;;12.68;;
55218;SDS011;65463;43.864;20.136;2023-05-19T14:11:58;21.35;;;12.90;;
55218;SDS011;65463;43.864;20.136;2023-05-19T14:14:24;22.25;;;13.23;;
55218;SDS011;65463;43.864;20.136;2023-05-19T14:16:50;19.75;;;13.13;;
55218;SDS011;65463;43.864;20.136;2023-05-19T14:19:16;18.92;;;12.50;;
55218;SDS011;65463;43.864;20.136;2023-05-19T14:21:42;21.45;;;12.93;;
55218;SDS011;65463;43.864;20.136;2023-05-19T14:24:08;21.10;;;12.20;;
55218;SDS011;65463;43.864;20.136;2023-05-19T14:26:34;17.77;;;12.45;;
55218;SDS011;65463;43.864;20.136;2023-05-19T14:29:02;19.95;;;13.23;;
55218;SDS011;65463;43.864;20.136;2023-05-19T14:31:28;20.88;;;12.82;;
55218;SDS011;65463;43.864;20.136;2023-05-19T14:33:54;18.42;;;12.68;;
55218;SDS011;65463;43.864;20.136;2023-05-19T14:36:20;18.30;;;12.90;;
55218;SDS011;65463;43.864;20.136;2023-05-19T14:38:47;19.55;;;12.65;;
55218;SDS011;65463;43.864;20.136;2023-05-19T14:41:13;19.80;;;13.10;;
55218;SDS011;65463;43.864;20.136;2023-05-19T14:43:39;21.80;;;12.68;;
55218;SDS011;65463;43.864;20.136;2023-05-19T14:46:07;18.50;;;13.25;;
55218;SDS011;65463;43.864;20.136;2023-05-19T14:48:33;20.80;;;13.70;;
55218;SDS011;65463;43.864;20.136;2023-05-19T14:50:59;20.05;;;13.65;;
55218;SDS011;65463;43.864;20.136;2023-05-19T14:53:25;20.77;;;13.43;;